sensor_id;sensor_type;location;lat;lon;timestamp;P1;durP1;ratioP1;P2;durP2;ratioP2
7426;SDS011;3755;59.316;18.092;2022-10-16T00:01:13;22.77;;;15.52;;
7426;SDS011;3755;59.316;18.092;2022-10-16T00:03:43;24.10;;;15.40;;
7426;SDS011;3755;59.316;18.092;2022-10-16T00:06:11;19.88;;;15.18;;
7426;SDS011;3755;59.316;18.092;2022-10-16T00:08:39;22.33;;;14.18;;
7426;SDS011;3755;59.316;18.092;2022-10-16T00:11:07;22.75;;;14.50;;
7426;SDS011;3755;59.316;18.092;2022-10-16T00:13:36;19.13;;;13.10;;
7426;SDS011;3755;59.316;18.092;2022-10-16T00:16:06;15.38;;;10.55;;
7426;SDS011;3755;59.316;18.092;2022-10-16T00:18:35;18.60;;;12.32;;
7426;SDS011;3755;59.316;18.092;2022-10-16T00:21:04;20.67;;;14.52;;
7426;SDS011;3755;59.316;18.092;2022-10-16T00:23:31;17.83;;;11.98;;
7426;SDS011;3755;59.316;18.092;2022-10-16T00:26:00;18.15;;;13.18;;
7426;SDS011;3755;59.316;18.092;2022-10-16T00:28:28;21.05;;;12.80;;
7426;SDS011;3755;59.316;18.092;2022-10-16T00:30:56;18.75;;;13.52;;
7426;SDS011;3755;59.316;18.092;2022-10-16T00:33:24;19.85;;;13.25;;
7426;SDS011;3755;59.316;18.092;2022-10-16T00:35:51;19.50;;;13.38;;
7426;SDS011;3755;59.316;18.092;2022-10-16T00:38:18;19.48;;;13.57;;
7426;SDS011;3755;59.316;18.092;2022-10-16T00:40:45;22.35;;;13.25;;
7426;SDS011;3755;59.316;18.092;2022-10-16T00:43:13;18.95;;;13.05;;
7426;SDS011;3755;59.316;18.092;2022-10-16T00:45:58;18.13;;;12.65;;
7426;SDS011;3755;59.316;18.092;2022-10-16T00:48:26;21.45;;;14.52;;
7426;SDS011;3755;59.316;18.092;2022-10-16T00:50:54;21.42;;;14.20;;
7426;SDS011;3755;59.316;18.092;2022-10-16T00:53:22;22.17;;;15.10;;
7426;SDS011;3755;59.316;18.092;2022-10-16T00:55:51;22.08;;;14.45;;
7426;SDS011;3755;59.316;18.092;2022-10-16T00:58:18;21.25;;;14.27;;
7426;SDS011;3755;59.316;18.092;2022-10-16T01:00:46;20.80;;;14.75;;
7426;SDS011;3755;59.316;18.092;2022-10-16T01:03:23;20.85;;;14.57;;
7426;SDS011;3755;59.316;18.092;2022-10-16T01:05:58;21.05;;;14.35;;
7426;SDS011;3755;59.316;18.092;2022-10-16T01:08:47;19.08;;;13.93;;
7426;SDS011;3755;59.316;18.092;2022-10-16T01:11:25;19.98;;;14.70;;
7426;SDS011;3755;59.316;18.092;2022-10-16T01:14:00;21.83;;;13.70;;
7426;SDS011;3755;59.316;18.092;2022-10-16T01:16:34;21.63;;;14.18;;
7426;SDS011;3755;59.316;18.092;2022-10-16T01:19:09;19.38;;;13.90;;
7426;SDS011;3755;59.316;18.092;2022-10-16T01:21:43;18.65;;;12.25;;
7426;SDS011;3755;59.316;18.092;2022-10-16T01:24:16;17.70;;;12.93;;
7426;SDS011;3755;59.316;18.092;2022-10-16T01:29:36;18.75;;;13.68;;
7426;SDS011;3755;59.316;18.092;2022-10-16T01:32:10;18.10;;;12.15;;
7426;SDS011;3755;59.316;18.092;2022-10-16T01:34:45;19.73;;;12.25;;
7426;SDS011;3755;59.316;18.092;2022-10-16T01:37:18;17.45;;;11.50;;
7426;SDS011;3755;59.316;18.092;2022-10-16T01:39:49;20.23;;;13.57;;
7426;SDS011;3755;59.316;18.092;2022-10-16T01:42:22;19.63;;;13.27;;
7426;SDS011;3755;59.316;18.092;2022-10-16T01:44:53;19.38;;;13.95;;
7426;SDS011;3755;59.316;18.092;2022-10-16T01:47:22;17.30;;;12.35;;
7426;SDS011;3755;59.316;18.092;2022-10-16T01:49:51;19.15;;;13.25;;
7426;SDS011;3755;59.316;18.092;2022-10-16T01:52:22;21.63;;;13.77;;
7426;SDS011;3755;59.316;18.092;2022-10-16T01:54:52;19.88;;;13.27;;
7426;SDS011;3755;59.316;18.092;2022-10-16T01:57:24;17.27;;;12.27;;
7426;SDS011;3755;59.316;18.092;2022-10-16T01:59:54;19.02;;;13.27;;
7426;SDS011;3755;59.316;18.092;2022-10-16T02:02:27;19.45;;;14.20;;
7426;SDS011;3755;59.316;18.092;2022-10-16T02:04:58;17.60;;;13.43;;
7426;SDS011;3755;59.316;18.092;2022-10-16T02:07:30;17.85;;;12.82;;
7426;SDS011;3755;59.316;18.092;2022-10-16T02:09:57;18.92;;;12.40;;
7426;SDS011;3755;59.316;18.092;2022-10-16T02:12:28;19.80;;;13.13;;
7426;SDS011;3755;59.316;18.092;2022-10-16T02:14:57;19.17;;;12.88;;
7426;SDS011;3755;59.316;18.092;2022-10-16T02:17:25;19.55;;;13.40;;
7426;SDS011;3755;59.316;18.092;2022-10-16T02:19:53;19.77;;;11.75;;
7426;SDS011;3755;59.316;18.092;2022-10-16T02:22:24;16.85;;;12.88;;
7426;SDS011;3755;59.316;18.092;2022-10-16T02:24:54;16.80;;;11.63;;
7426;SDS011;3755;59.316;18.092;2022-10-16T02:27:29;16.38;;;11.93;;
7426;SDS011;3755;59.316;18.092;2022-10-16T02:30:05;18.55;;;12.75;;
7426;SDS011;3755;59.316;18.092;2022-10-16T02:32:35;16.88;;;12.07;;
7426;SDS011;3755;59.316;18.092;2022-10-16T02:35:06;19.23;;;12.65;;
7426;SDS011;3755;59.316;18.092;2022-10-16T02:37:34;15.35;;;12.13;;
7426;SDS011;3755;59.316;18.092;2022-10-16T02:40:04;21.00;;;13.07;;
7426;SDS011;3755;59.316;18.092;2022-10-16T02:42:35;19.17;;;12.13;;
7426;SDS011;3755;59.316;18.092;2022-10-16T02:45:03;19.48;;;13.07;;
7426;SDS011;3755;59.316;18.092;2022-10-16T02:47:31;18.10;;;12.60;;
7426;SDS011;3755;59.316;18.092;2022-10-16T02:49:58;17.48;;;12.05;;
7426;SDS011;3755;59.316;18.092;2022-10-16T02:52:25;18.00;;;12.93;;
7426;SDS011;3755;59.316;18.092;2022-10-16T02:54:53;17.20;;;12.18;;
7426;SDS011;3755;59.316;18.092;2022-10-16T02:57:20;15.20;;;11.57;;
7426;SDS011;3755;59.316;18.092;2022-10-16T02:59:50;14.10;;;11.13;;
7426;SDS011;3755;59.316;18.092;2022-10-16T03:02:17;15.73;;;12.02;;
7426;SDS011;3755;59.316;18.092;2022-10-16T03:04:44;15.50;;;11.65;;
7426;SDS011;3755;59.316;18.092;2022-10-16T03:07:11;12.70;;;9.50;;
7426;SDS011;3755;59.316;18.092;2022-10-16T03:09:38;15.63;;;10.48;;
7426;SDS011;3755;59.316;18.092;2022-10-16T03:12:05;16.02;;;11.27;;
7426;SDS011;3755;59.316;18.092;2022-10-16T03:14:32;17.42;;;10.95;;
7426;SDS011;3755;59.316;18.092;2022-10-16T03:17:00;17.40;;;11.68;;
7426;SDS011;3755;59.316;18.092;2022-10-16T03:19:27;16.83;;;10.20;;
7426;SDS011;3755;59.316;18.092;2022-10-16T03:21:54;15.43;;;10.35;;
7426;SDS011;3755;59.316;18.092;2022-10-16T03:24:22;15.82;;;10.20;;
7426;SDS011;3755;59.316;18.092;2022-10-16T03:26:49;14.35;;;9.90;;
7426;SDS011;3755;59.316;18.092;2022-10-16T03:29:16;15.98;;;10.73;;
7426;SDS011;3755;59.316;18.092;2022-10-16T03:31:43;14.07;;;10.93;;
7426;SDS011;3755;59.316;18.092;2022-10-16T03:34:11;16.02;;;10.90;;
7426;SDS011;3755;59.316;18.092;2022-10-16T03:36:38;15.80;;;11.27;;
7426;SDS011;3755;59.316;18.092;2022-10-16T03:39:05;13.38;;;10.40;;
7426;SDS011;3755;59.316;18.092;2022-10-16T03:41:32;17.23;;;11.10;;
7426;SDS011;3755;59.316;18.092;2022-10-16T03:43:59;16.52;;;11.80;;
7426;SDS011;3755;59.316;18.092;2022-10-16T03:46:26;13.23;;;10.93;;
7426;SDS011;3755;59.316;18.092;2022-10-16T03:48:53;16.40;;;10.00;;
7426;SDS011;3755;59.316;18.092;2022-10-16T03:51:22;14.65;;;9.77;;
7426;SDS011;3755;59.316;18.092;2022-10-16T03:53:49;13.48;;;10.13;;
7426;SDS011;3755;59.316;18.092;2022-10-16T03:56:16;14.95;;;10.05;;
7426;SDS011;3755;59.316;18.092;2022-10-16T03:58:43;12.85;;;9.32;;
7426;SDS011;3755;59.316;18.092;2022-10-16T04:01:10;12.52;;;9.57;;
7426;SDS011;3755;59.316;18.092;2022-10-16T04:03:37;13.77;;;9.02;;
7426;SDS011;3755;59.316;18.092;2022-10-16T04:06:04;16.63;;;10.02;;
7426;SDS011;3755;59.316;18.092;2022-10-16T04:08:32;13.10;;;9.70;;
7426;SDS011;3755;59.316;18.092;2022-10-16T04:11:01;11.43;;;8.38;;
7426;SDS011;3755;59.316;18.092;2022-10-16T04:13:29;12.77;;;9.05;;
7426;SDS011;3755;59.316;18.092;2022-10-16T04:15:56;11.07;;;7.53;;
7426;SDS011;3755;59.316;18.092;2022-10-16T04:18:23;10.27;;;6.45;;
7426;SDS011;3755;59.316;18.092;2022-10-16T04:20:52;9.75;;;7.45;;
7426;SDS011;3755;59.316;18.092;2022-10-16T04:23:19;8.75;;;6.82;;
7426;SDS011;3755;59.316;18.092;2022-10-16T04:25:49;8.93;;;7.47;;
7426;SDS011;3755;59.316;18.092;2022-10-16T04:28:16;11.80;;;7.97;;
7426;SDS011;3755;59.316;18.092;2022-10-16T04:30:43;11.23;;;8.30;;
7426;SDS011;3755;59.316;18.092;2022-10-16T04:33:10;12.82;;;8.10;;
7426;SDS011;3755;59.316;18.092;2022-10-16T04:35:37;12.55;;;8.40;;
7426;SDS011;3755;59.316;18.092;2022-10-16T04:38:04;10.30;;;7.18;;
7426;SDS011;3755;59.316;18.092;2022-10-16T04:40:31;11.15;;;7.80;;
7426;SDS011;3755;59.316;18.092;2022-10-16T04:43:02;14.63;;;8.07;;
7426;SDS011;3755;59.316;18.092;2022-10-16T04:45:30;12.52;;;8.02;;
7426;SDS011;3755;59.316;18.092;2022-10-16T04:47:57;9.20;;;7.35;;
7426;SDS011;3755;59.316;18.092;2022-10-16T04:50:25;13.80;;;8.93;;
7426;SDS011;3755;59.316;18.092;2022-10-16T04:52:52;13.23;;;8.68;;
7426;SDS011;3755;59.316;18.092;2022-10-16T04:55:19;9.02;;;7.32;;
7426;SDS011;3755;59.316;18.092;2022-10-16T04:57:46;13.27;;;8.25;;
7426;SDS011;3755;59.316;18.092;2022-10-16T05:00:15;10.70;;;7.65;;
7426;SDS011;3755;59.316;18.092;2022-10-16T05:02:42;9.60;;;7.75;;
7426;SDS011;3755;59.316;18.092;2022-10-16T05:05:09;11.73;;;7.88;;
7426;SDS011;3755;59.316;18.092;2022-10-16T05:07:36;12.60;;;8.52;;
7426;SDS011;3755;59.316;18.092;2022-10-16T05:10:04;12.05;;;8.40;;
7426;SDS011;3755;59.316;18.092;2022-10-16T05:12:31;13.30;;;8.73;;
7426;SDS011;3755;59.316;18.092;2022-10-16T05:14:58;10.75;;;8.20;;
7426;SDS011;3755;59.316;18.092;2022-10-16T05:17:27;14.93;;;8.07;;
7426;SDS011;3755;59.316;18.092;2022-10-16T05:19:54;10.95;;;7.68;;
7426;SDS011;3755;59.316;18.092;2022-10-16T05:22:21;11.88;;;8.30;;
7426;SDS011;3755;59.316;18.092;2022-10-16T05:24:48;12.82;;;8.18;;
7426;SDS011;3755;59.316;18.092;2022-10-16T05:27:15;11.60;;;8.07;;
7426;SDS011;3755;59.316;18.092;2022-10-16T05:29:44;11.40;;;8.13;;
7426;SDS011;3755;59.316;18.092;2022-10-16T05:32:12;15.32;;;8.82;;
7426;SDS011;3755;59.316;18.092;2022-10-16T05:34:41;10.80;;;8.15;;
7426;SDS011;3755;59.316;18.092;2022-10-16T05:37:08;18.42;;;9.52;;
7426;SDS011;3755;59.316;18.092;2022-10-16T05:39:36;14.32;;;9.05;;
7426;SDS011;3755;59.316;18.092;2022-10-16T05:42:03;14.30;;;8.88;;
7426;SDS011;3755;59.316;18.092;2022-10-16T05:44:31;19.95;;;9.45;;
7426;SDS011;3755;59.316;18.092;2022-10-16T05:46:58;14.73;;;8.95;;
7426;SDS011;3755;59.316;18.092;2022-10-16T05:49:25;15.02;;;9.10;;
7426;SDS011;3755;59.316;18.092;2022-10-16T05:51:57;16.00;;;9.02;;
7426;SDS011;3755;59.316;18.092;2022-10-16T05:54:27;12.15;;;8.73;;
7426;SDS011;3755;59.316;18.092;2022-10-16T05:56:54;13.10;;;9.15;;
7426;SDS011;3755;59.316;18.092;2022-10-16T05:59:21;14.77;;;10.02;;
7426;SDS011;3755;59.316;18.092;2022-10-16T06:01:48;12.20;;;8.95;;
7426;SDS011;3755;59.316;18.092;2022-10-16T06:04:15;13.30;;;9.43;;
7426;SDS011;3755;59.316;18.092;2022-10-16T06:06:43;15.75;;;10.35;;
7426;SDS011;3755;59.316;18.092;2022-10-16T06:09:12;18.38;;;9.93;;
7426;SDS011;3755;59.316;18.092;2022-10-16T06:11:39;15.63;;;10.55;;
7426;SDS011;3755;59.316;18.092;2022-10-16T06:14:06;16.10;;;9.55;;
7426;SDS011;3755;59.316;18.092;2022-10-16T06:16:35;17.95;;;11.90;;
7426;SDS011;3755;59.316;18.092;2022-10-16T06:19:03;18.98;;;12.18;;
7426;SDS011;3755;59.316;18.092;2022-10-16T06:21:33;18.08;;;12.25;;
7426;SDS011;3755;59.316;18.092;2022-10-16T06:24:00;19.42;;;12.20;;
7426;SDS011;3755;59.316;18.092;2022-10-16T06:26:30;16.13;;;12.40;;
7426;SDS011;3755;59.316;18.092;2022-10-16T06:29:00;19.55;;;12.90;;
7426;SDS011;3755;59.316;18.092;2022-10-16T06:31:29;21.73;;;13.38;;
7426;SDS011;3755;59.316;18.092;2022-10-16T06:33:58;20.00;;;13.25;;
7426;SDS011;3755;59.316;18.092;2022-10-16T06:36:25;23.30;;;14.35;;
7426;SDS011;3755;59.316;18.092;2022-10-16T06:38:53;22.75;;;14.43;;
7426;SDS011;3755;59.316;18.092;2022-10-16T06:41:21;20.25;;;14.13;;
7426;SDS011;3755;59.316;18.092;2022-10-16T06:43:50;18.42;;;13.27;;
7426;SDS011;3755;59.316;18.092;2022-10-16T06:46:18;18.83;;;12.52;;
7426;SDS011;3755;59.316;18.092;2022-10-16T06:48:47;20.33;;;12.65;;
7426;SDS011;3755;59.316;18.092;2022-10-16T06:51:15;20.50;;;13.05;;
7426;SDS011;3755;59.316;18.092;2022-10-16T06:53:44;23.05;;;14.43;;
7426;SDS011;3755;59.316;18.092;2022-10-16T06:56:14;25.33;;;15.60;;
7426;SDS011;3755;59.316;18.092;2022-10-16T06:58:45;18.67;;;14.27;;
7426;SDS011;3755;59.316;18.092;2022-10-16T07:01:15;20.13;;;14.23;;
7426;SDS011;3755;59.316;18.092;2022-10-16T07:03:44;20.27;;;14.60;;
7426;SDS011;3755;59.316;18.092;2022-10-16T07:06:12;22.02;;;14.77;;
7426;SDS011;3755;59.316;18.092;2022-10-16T07:08:42;19.73;;;14.07;;
7426;SDS011;3755;59.316;18.092;2022-10-16T07:11:11;21.48;;;14.43;;
7426;SDS011;3755;59.316;18.092;2022-10-16T07:13:39;22.17;;;13.00;;
7426;SDS011;3755;59.316;18.092;2022-10-16T07:16:09;19.67;;;14.15;;
7426;SDS011;3755;59.316;18.092;2022-10-16T07:18:38;22.88;;;15.07;;
7426;SDS011;3755;59.316;18.092;2022-10-16T07:21:08;21.30;;;13.98;;
7426;SDS011;3755;59.316;18.092;2022-10-16T07:23:36;21.08;;;13.40;;
7426;SDS011;3755;59.316;18.092;2022-10-16T07:26:03;18.02;;;12.50;;
7426;SDS011;3755;59.316;18.092;2022-10-16T07:28:34;19.02;;;13.15;;
7426;SDS011;3755;59.316;18.092;2022-10-16T07:31:02;18.13;;;12.82;;
7426;SDS011;3755;59.316;18.092;2022-10-16T07:33:31;17.38;;;12.35;;
7426;SDS011;3755;59.316;18.092;2022-10-16T07:36:00;17.83;;;12.32;;
7426;SDS011;3755;59.316;18.092;2022-10-16T07:38:28;18.40;;;10.55;;
7426;SDS011;3755;59.316;18.092;2022-10-16T07:40:56;15.75;;;10.48;;
7426;SDS011;3755;59.316;18.092;2022-10-16T07:43:24;15.00;;;9.43;;
7426;SDS011;3755;59.316;18.092;2022-10-16T07:45:51;13.75;;;9.68;;
7426;SDS011;3755;59.316;18.092;2022-10-16T07:48:19;15.57;;;10.07;;
7426;SDS011;3755;59.316;18.092;2022-10-16T07:50:47;15.40;;;9.38;;
7426;SDS011;3755;59.316;18.092;2022-10-16T07:53:15;13.43;;;8.20;;
7426;SDS011;3755;59.316;18.092;2022-10-16T07:55:42;13.60;;;7.60;;
7426;SDS011;3755;59.316;18.092;2022-10-16T07:58:09;12.68;;;7.53;;
7426;SDS011;3755;59.316;18.092;2022-10-16T08:00:39;11.57;;;7.55;;
7426;SDS011;3755;59.316;18.092;2022-10-16T08:03:07;10.18;;;7.00;;
7426;SDS011;3755;59.316;18.092;2022-10-16T08:05:34;7.63;;;6.30;;
7426;SDS011;3755;59.316;18.092;2022-10-16T08:08:01;8.57;;;6.45;;
7426;SDS011;3755;59.316;18.092;2022-10-16T08:10:30;8.23;;;6.15;;
7426;SDS011;3755;59.316;18.092;2022-10-16T08:12:57;7.68;;;6.30;;
7426;SDS011;3755;59.316;18.092;2022-10-16T08:15:25;9.13;;;6.88;;
7426;SDS011;3755;59.316;18.092;2022-10-16T08:17:54;8.73;;;6.70;;
7426;SDS011;3755;59.316;18.092;2022-10-16T08:20:22;9.82;;;6.63;;
7426;SDS011;3755;59.316;18.092;2022-10-16T08:22:49;7.97;;;4.95;;
7426;SDS011;3755;59.316;18.092;2022-10-16T08:25:17;8.02;;;5.55;;
7426;SDS011;3755;59.316;18.092;2022-10-16T08:27:47;8.80;;;5.75;;
7426;SDS011;3755;59.316;18.092;2022-10-16T08:30:15;8.48;;;5.90;;
7426;SDS011;3755;59.316;18.092;2022-10-16T08:32:42;8.82;;;5.93;;
7426;SDS011;3755;59.316;18.092;2022-10-16T08:35:10;7.35;;;5.22;;
7426;SDS011;3755;59.316;18.092;2022-10-16T08:37:37;6.85;;;5.13;;
7426;SDS011;3755;59.316;18.092;2022-10-16T08:40:05;8.73;;;5.45;;
7426;SDS011;3755;59.316;18.092;2022-10-16T08:42:44;8.77;;;5.10;;
7426;SDS011;3755;59.316;18.092;2022-10-16T08:45:28;6.38;;;5.10;;
7426;SDS011;3755;59.316;18.092;2022-10-16T08:48:06;9.13;;;5.50;;
7426;SDS011;3755;59.316;18.092;2022-10-16T08:50:41;6.45;;;5.18;;
7426;SDS011;3755;59.316;18.092;2022-10-16T08:53:10;7.95;;;5.93;;
7426;SDS011;3755;59.316;18.092;2022-10-16T08:55:44;6.93;;;5.35;;
7426;SDS011;3755;59.316;18.092;2022-10-16T08:58:17;7.50;;;5.20;;
7426;SDS011;3755;59.316;18.092;2022-10-16T09:00:46;7.82;;;5.25;;
7426;SDS011;3755;59.316;18.092;2022-10-16T09:03:35;6.68;;;4.95;;
7426;SDS011;3755;59.316;18.092;2022-10-16T09:06:21;10.02;;;5.78;;
7426;SDS011;3755;59.316;18.092;2022-10-16T09:09:02;6.63;;;4.00;;
7426;SDS011;3755;59.316;18.092;2022-10-16T09:11:44;6.70;;;4.82;;
7426;SDS011;3755;59.316;18.092;2022-10-16T09:14:23;7.00;;;5.03;;
7426;SDS011;3755;59.316;18.092;2022-10-16T09:17:06;8.63;;;4.90;;
7426;SDS011;3755;59.316;18.092;2022-10-16T09:19:49;9.63;;;4.53;;
7426;SDS011;3755;59.316;18.092;2022-10-16T09:22:25;5.55;;;3.95;;
7426;SDS011;3755;59.316;18.092;2022-10-16T09:24:55;6.68;;;4.80;;
7426;SDS011;3755;59.316;18.092;2022-10-16T09:27:27;7.40;;;4.53;;
7426;SDS011;3755;59.316;18.092;2022-10-16T09:29:57;6.68;;;4.40;;
7426;SDS011;3755;59.316;18.092;2022-10-16T09:32:24;5.95;;;4.03;;
7426;SDS011;3755;59.316;18.092;2022-10-16T09:34:55;6.90;;;3.85;;
7426;SDS011;3755;59.316;18.092;2022-10-16T09:37:22;6.40;;;4.10;;
7426;SDS011;3755;59.316;18.092;2022-10-16T09:39:53;7.90;;;4.10;;
7426;SDS011;3755;59.316;18.092;2022-10-16T09:42:22;9.07;;;3.88;;
7426;SDS011;3755;59.316;18.092;2022-10-16T09:44:55;7.95;;;4.10;;
7426;SDS011;3755;59.316;18.092;2022-10-16T09:47:25;8.98;;;4.47;;
7426;SDS011;3755;59.316;18.092;2022-10-16T09:49:54;9.82;;;3.88;;
7426;SDS011;3755;59.316;18.092;2022-10-16T09:52:24;6.68;;;3.90;;
7426;SDS011;3755;59.316;18.092;2022-10-16T09:54:53;4.90;;;3.63;;
7426;SDS011;3755;59.316;18.092;2022-10-16T09:57:22;6.22;;;4.07;;
7426;SDS011;3755;59.316;18.092;2022-10-16T09:59:50;9.30;;;3.90;;
7426;SDS011;3755;59.316;18.092;2022-10-16T10:02:26;6.25;;;3.70;;
7426;SDS011;3755;59.316;18.092;2022-10-16T10:04:57;15.82;;;4.22;;
7426;SDS011;3755;59.316;18.092;2022-10-16T10:07:24;7.68;;;3.42;;
7426;SDS011;3755;59.316;18.092;2022-10-16T10:09:53;5.38;;;3.40;;
7426;SDS011;3755;59.316;18.092;2022-10-16T10:12:23;5.78;;;3.45;;
7426;SDS011;3755;59.316;18.092;2022-10-16T10:14:52;6.35;;;3.85;;
7426;SDS011;3755;59.316;18.092;2022-10-16T10:17:25;7.28;;;3.80;;
7426;SDS011;3755;59.316;18.092;2022-10-16T10:19:53;5.88;;;3.53;;
7426;SDS011;3755;59.316;18.092;2022-10-16T10:22:31;5.25;;;3.80;;
7426;SDS011;3755;59.316;18.092;2022-10-16T10:25:22;5.88;;;3.30;;
7426;SDS011;3755;59.316;18.092;2022-10-16T10:28:03;6.57;;;3.08;;
7426;SDS011;3755;59.316;18.092;2022-10-16T10:30:50;7.68;;;3.58;;
7426;SDS011;3755;59.316;18.092;2022-10-16T10:33:28;6.80;;;3.58;;
7426;SDS011;3755;59.316;18.092;2022-10-16T10:36:22;8.48;;;3.40;;
7426;SDS011;3755;59.316;18.092;2022-10-16T10:38:56;5.25;;;2.83;;
7426;SDS011;3755;59.316;18.092;2022-10-16T10:41:39;7.97;;;3.70;;
7426;SDS011;3755;59.316;18.092;2022-10-16T10:44:39;4.82;;;2.97;;
7426;SDS011;3755;59.316;18.092;2022-10-16T10:47:23;5.22;;;2.97;;
7426;SDS011;3755;59.316;18.092;2022-10-16T10:50:02;7.22;;;3.00;;
7426;SDS011;3755;59.316;18.092;2022-10-16T10:52:48;5.57;;;3.10;;
7426;SDS011;3755;59.316;18.092;2022-10-16T10:55:23;7.07;;;3.20;;
7426;SDS011;3755;59.316;18.092;2022-10-16T11:01:01;7.93;;;3.17;;
7426;SDS011;3755;59.316;18.092;2022-10-16T11:03:35;8.32;;;2.50;;
7426;SDS011;3755;59.316;18.092;2022-10-16T11:06:13;5.50;;;2.50;;
7426;SDS011;3755;59.316;18.092;2022-10-16T11:08:45;6.63;;;2.58;;
7426;SDS011;3755;59.316;18.092;2022-10-16T11:11:17;7.18;;;2.95;;
7426;SDS011;3755;59.316;18.092;2022-10-16T11:13:51;4.55;;;2.38;;
7426;SDS011;3755;59.316;18.092;2022-10-16T11:16:33;6.43;;;2.65;;
7426;SDS011;3755;59.316;18.092;2022-10-16T11:19:03;6.75;;;2.70;;
7426;SDS011;3755;59.316;18.092;2022-10-16T11:21:39;6.25;;;2.47;;
7426;SDS011;3755;59.316;18.092;2022-10-16T11:24:16;5.80;;;3.00;;
7426;SDS011;3755;59.316;18.092;2022-10-16T11:26:47;4.75;;;2.50;;
7426;SDS011;3755;59.316;18.092;2022-10-16T11:29:16;6.78;;;3.13;;
7426;SDS011;3755;59.316;18.092;2022-10-16T11:31:50;7.72;;;2.78;;
7426;SDS011;3755;59.316;18.092;2022-10-16T11:34:22;9.48;;;2.33;;
7426;SDS011;3755;59.316;18.092;2022-10-16T11:37:01;7.68;;;3.08;;
7426;SDS011;3755;59.316;18.092;2022-10-16T11:39:34;9.40;;;2.90;;
7426;SDS011;3755;59.316;18.092;2022-10-16T11:42:05;7.68;;;2.42;;
7426;SDS011;3755;59.316;18.092;2022-10-16T11:44:50;4.32;;;2.70;;
7426;SDS011;3755;59.316;18.092;2022-10-16T11:47:24;8.15;;;2.88;;
7426;SDS011;3755;59.316;18.092;2022-10-16T11:49:57;8.85;;;2.63;;
7426;SDS011;3755;59.316;18.092;2022-10-16T11:52:30;6.43;;;2.85;;
7426;SDS011;3755;59.316;18.092;2022-10-16T11:55:08;7.13;;;2.92;;
7426;SDS011;3755;59.316;18.092;2022-10-16T11:57:42;5.95;;;2.58;;
7426;SDS011;3755;59.316;18.092;2022-10-16T12:00:17;7.20;;;2.88;;
7426;SDS011;3755;59.316;18.092;2022-10-16T12:02:53;5.00;;;2.60;;
7426;SDS011;3755;59.316;18.092;2022-10-16T12:05:29;6.68;;;2.75;;
7426;SDS011;3755;59.316;18.092;2022-10-16T12:08:04;5.30;;;2.72;;
7426;SDS011;3755;59.316;18.092;2022-10-16T12:10:36;5.75;;;2.63;;
7426;SDS011;3755;59.316;18.092;2022-10-16T12:13:25;5.28;;;3.05;;
7426;SDS011;3755;59.316;18.092;2022-10-16T12:16:06;6.82;;;2.95;;
7426;SDS011;3755;59.316;18.092;2022-10-16T12:18:46;7.82;;;3.28;;
7426;SDS011;3755;59.316;18.092;2022-10-16T12:21:14;9.43;;;3.00;;
7426;SDS011;3755;59.316;18.092;2022-10-16T12:23:53;3.97;;;3.08;;
7426;SDS011;3755;59.316;18.092;2022-10-16T12:26:24;6.75;;;3.15;;
7426;SDS011;3755;59.316;18.092;2022-10-16T12:28:52;9.63;;;3.58;;
7426;SDS011;3755;59.316;18.092;2022-10-16T12:31:22;6.32;;;3.30;;
7426;SDS011;3755;59.316;18.092;2022-10-16T12:34:14;6.15;;;3.40;;
7426;SDS011;3755;59.316;18.092;2022-10-16T12:40:14;8.43;;;2.60;;
7426;SDS011;3755;59.316;18.092;2022-10-16T12:46:22;5.55;;;2.70;;
7426;SDS011;3755;59.316;18.092;2022-10-16T12:49:22;5.32;;;2.88;;
7426;SDS011;3755;59.316;18.092;2022-10-16T12:51:58;4.88;;;2.35;;
7426;SDS011;3755;59.316;18.092;2022-10-16T12:54:27;3.70;;;2.45;;
7426;SDS011;3755;59.316;18.092;2022-10-16T12:57:03;4.28;;;2.40;;
7426;SDS011;3755;59.316;18.092;2022-10-16T12:59:46;3.67;;;2.08;;
7426;SDS011;3755;59.316;18.092;2022-10-16T13:02:28;4.30;;;2.35;;
7426;SDS011;3755;59.316;18.092;2022-10-16T13:05:19;6.78;;;2.38;;
7426;SDS011;3755;59.316;18.092;2022-10-16T13:08:01;5.68;;;2.47;;
7426;SDS011;3755;59.316;18.092;2022-10-16T13:10:41;3.28;;;2.35;;
7426;SDS011;3755;59.316;18.092;2022-10-16T13:13:26;10.05;;;2.90;;
7426;SDS011;3755;59.316;18.092;2022-10-16T13:16:18;7.55;;;3.15;;
7426;SDS011;3755;59.316;18.092;2022-10-16T13:18:53;5.05;;;2.92;;
7426;SDS011;3755;59.316;18.092;2022-10-16T13:21:31;4.15;;;2.83;;
7426;SDS011;3755;59.316;18.092;2022-10-16T13:24:09;4.68;;;2.72;;
7426;SDS011;3755;59.316;18.092;2022-10-16T13:26:45;4.65;;;2.60;;
7426;SDS011;3755;59.316;18.092;2022-10-16T13:29:23;8.60;;;2.75;;
7426;SDS011;3755;59.316;18.092;2022-10-16T13:31:50;4.50;;;2.40;;
7426;SDS011;3755;59.316;18.092;2022-10-16T13:34:19;8.15;;;2.47;;
7426;SDS011;3755;59.316;18.092;2022-10-16T13:36:49;4.28;;;2.03;;
7426;SDS011;3755;59.316;18.092;2022-10-16T13:39:21;6.32;;;2.72;;
7426;SDS011;3755;59.316;18.092;2022-10-16T13:42:03;4.10;;;2.33;;
7426;SDS011;3755;59.316;18.092;2022-10-16T13:44:36;5.07;;;2.67;;
7426;SDS011;3755;59.316;18.092;2022-10-16T13:47:22;4.90;;;1.80;;
7426;SDS011;3755;59.316;18.092;2022-10-16T13:50:05;6.18;;;2.38;;
7426;SDS011;3755;59.316;18.092;2022-10-16T13:52:38;6.45;;;2.58;;
7426;SDS011;3755;59.316;18.092;2022-10-16T13:55:09;3.75;;;2.30;;
7426;SDS011;3755;59.316;18.092;2022-10-16T13:57:41;4.43;;;2.00;;
7426;SDS011;3755;59.316;18.092;2022-10-16T14:00:23;3.08;;;2.10;;
7426;SDS011;3755;59.316;18.092;2022-10-16T14:02:55;4.80;;;1.85;;
7426;SDS011;3755;59.316;18.092;2022-10-16T14:05:26;5.72;;;2.13;;
7426;SDS011;3755;59.316;18.092;2022-10-16T14:07:54;4.80;;;2.78;;
7426;SDS011;3755;59.316;18.092;2022-10-16T14:10:23;5.90;;;2.67;;
7426;SDS011;3755;59.316;18.092;2022-10-16T14:12:54;9.75;;;4.10;;
7426;SDS011;3755;59.316;18.092;2022-10-16T14:15:27;6.78;;;2.78;;
7426;SDS011;3755;59.316;18.092;2022-10-16T14:17:58;3.63;;;1.73;;
7426;SDS011;3755;59.316;18.092;2022-10-16T14:20:31;3.55;;;1.50;;
7426;SDS011;3755;59.316;18.092;2022-10-16T14:23:03;9.05;;;2.92;;
7426;SDS011;3755;59.316;18.092;2022-10-16T14:25:31;6.43;;;2.92;;
7426;SDS011;3755;59.316;18.092;2022-10-16T14:28:00;8.00;;;3.50;;
7426;SDS011;3755;59.316;18.092;2022-10-16T14:30:30;5.65;;;2.22;;
7426;SDS011;3755;59.316;18.092;2022-10-16T14:33:00;6.68;;;2.13;;
7426;SDS011;3755;59.316;18.092;2022-10-16T14:35:29;7.00;;;2.03;;
7426;SDS011;3755;59.316;18.092;2022-10-16T14:37:59;3.65;;;1.92;;
7426;SDS011;3755;59.316;18.092;2022-10-16T14:40:31;5.28;;;2.33;;
7426;SDS011;3755;59.316;18.092;2022-10-16T14:42:59;5.53;;;2.20;;
7426;SDS011;3755;59.316;18.092;2022-10-16T14:45:28;5.75;;;2.50;;
7426;SDS011;3755;59.316;18.092;2022-10-16T14:48:00;5.68;;;2.20;;
7426;SDS011;3755;59.316;18.092;2022-10-16T14:50:30;5.28;;;2.70;;
7426;SDS011;3755;59.316;18.092;2022-10-16T14:52:57;7.82;;;2.72;;
7426;SDS011;3755;59.316;18.092;2022-10-16T14:55:25;4.40;;;2.25;;
7426;SDS011;3755;59.316;18.092;2022-10-16T14:57:52;6.03;;;2.30;;
7426;SDS011;3755;59.316;18.092;2022-10-16T15:00:20;11.55;;;4.72;;
7426;SDS011;3755;59.316;18.092;2022-10-16T15:02:50;8.32;;;3.65;;
7426;SDS011;3755;59.316;18.092;2022-10-16T15:05:18;5.20;;;2.33;;
7426;SDS011;3755;59.316;18.092;2022-10-16T15:07:48;9.10;;;2.67;;
7426;SDS011;3755;59.316;18.092;2022-10-16T15:10:24;8.55;;;3.67;;
7426;SDS011;3755;59.316;18.092;2022-10-16T15:12:53;14.52;;;5.70;;
7426;SDS011;3755;59.316;18.092;2022-10-16T15:15:30;11.10;;;5.63;;
7426;SDS011;3755;59.316;18.092;2022-10-16T15:18:02;11.45;;;5.75;;
7426;SDS011;3755;59.316;18.092;2022-10-16T15:20:32;10.70;;;4.70;;
7426;SDS011;3755;59.316;18.092;2022-10-16T15:23:01;7.70;;;3.40;;
7426;SDS011;3755;59.316;18.092;2022-10-16T15:25:36;6.65;;;2.72;;